Terminal Aerodrome Forecast
Issued by NWS

Home | Current Version | Previous Version | Graphics & Text | Print | Product List | Glossary On
Versions: 1 2 3 4 5 6 7 8 9 10 11 12 13 14 15 16 17 18 19 20 21 22 23 24 25 26 27 28 29 30 31 32 33 34 35 36 37 38 39 40 41 42 43 44 45 46 47 48 49 50
000
FTUS43 KLOT 201900 AAA
TAFGYY
TAF AMD
KGYY 201925Z 2019/2118 22015G25KT P6SM VCTS SCT040CB BKN100
      TEMPO 2019/2020 5SM -TSRA SCT025 BKN040CB
     FM202000 23015G25KT P6SM VCTS SCT040CB BKN080
      TEMPO 2021/2022 5SM -TSRA SCT020 BKN040CB
     FM210000 27010KT P6SM SCT040 BKN070
     FM210800 29012G17KT P6SM FEW030
     FM211600 31015G24KT P6SM BKN035=

USA.gov is the U.S. government's official web portal to all federal, state and local government web resources and services.